Terminal Aerodrome Forecast
Issued by NWS Portland, OR

Home | Current Version | Previous Version | Text Only | Print | Product List | Glossary On
Versions: 1 2 3 4 5 6 7 8 9 10 11 12 13 14 15 16 17 18 19 20 21 22 23 24 25 26 27 28 29 30
063
FTUS46 KPQR 260536
TAFHIO
TAF
KHIO 260536Z 2606/2706 VRB04KT P6SM VCSH BKN050
     FM260900 16006KT P6SM -SHRA SCT030 OVC040
     FM261400 18008KT 3SM -RA OVC020
     FM261900 18006KT 5SM -SHRA BKN020 OVC040
     FM262200 16006KT P6SM -SHRA SCT020 BKN040
     FM270400 VRB03KT P6SM VCSH BKN040=

USA.gov is the U.S. government's official web portal to all federal, state and local government web resources and services.